Time;durP1;ratioP1;P1;durP2;ratioP2;P2;SDS_P1;SDS_P2;PMS_P1;PMS_P2;Temp;Humidity;BMP_temperature;BMP_pressure;BME280_temperature;BME280_humidity;BME280_pressure;Samples;Min_cycle;Max_cycle;Signal;HPM_P1;HPM_P2
2022/01/04 00:02:43;;;;;;;1.80;1.10;;;17.70;70.60;;;;;;10328995;28;20234;-68
2022/01/04 00:08:08;;;;;;;4.00;1.33;;;17.70;70.10;;;;;;10333019;28;20191;-68
2022/01/04 00:13:32;;;;;;;2.73;1.00;;;17.70;70.00;;;;;;10332637;28;20221;-69
2022/01/04 00:18:54;;;;;;;2.50;0.90;;;17.70;70.00;;;;;;10333208;28;20686;-68
2022/01/04 00:24:16;;;;;;;1.63;0.87;;;17.70;70.00;;;;;;10372620;28;20709;-69
2022/01/04 00:29:40;;;;;;;1.67;0.83;;;17.70;70.00;;;;;;10373700;28;20206;-69
2022/01/04 00:35:02;;;;;;;1.83;0.90;;;17.70;70.00;;;;;;10371744;28;20222;-69
2022/01/04 00:40:25;;;;;;;1.33;0.90;;;17.70;70.00;;;;;;10331717;28;20277;-69
2022/01/04 00:45:49;;;;;;;1.70;0.97;;;17.70;70.00;;;;;;10359518;28;20218;-69
2022/01/04 00:51:13;;;;;;;0.67;0.67;;;17.70;69.90;;;;;;10371768;28;20206;-68
2022/01/04 00:56:35;;;;;;;1.63;0.77;;;17.70;69.90;;;;;;10371834;28;20715;-69
2022/01/04 01:01:59;;;;;;;1.40;0.90;;;17.70;69.90;;;;;;10354434;28;20203;-69
2022/01/04 01:07:21;;;;;;;1.30;0.90;;;17.70;69.90;;;;;;10331344;28;20199;-69
2022/01/04 01:12:43;;;;;;;1.40;0.80;;;17.70;69.90;;;;;;10360212;28;20223;-69
2022/01/04 01:18:06;;;;;;;1.90;0.90;;;17.70;69.90;;;;;;10330684;28;20211;-69
2022/01/04 01:23:29;;;;;;;1.40;0.80;;;17.70;69.80;;;;;;10352622;28;20218;-69
2022/01/04 01:28:51;;;;;;;1.90;0.83;;;17.70;69.80;;;;;;10338830;28;20191;-69
2022/01/04 01:34:14;;;;;;;1.20;0.80;;;17.70;69.90;;;;;;10330000;28;20230;-69
2022/01/04 01:39:37;;;;;;;1.70;0.80;;;17.70;69.80;;;;;;10364841;28;20198;-70
2022/01/04 01:44:59;;;;;;;1.87;0.87;;;17.70;69.80;;;;;;10370549;28;20222;-69
2022/01/04 01:50:23;;;;;;;0.63;0.60;;;17.70;69.80;;;;;;10370713;28;20213;-69
2022/01/04 01:55:45;;;;;;;1.07;0.70;;;17.70;69.80;;;;;;10370185;28;20218;-69
2022/01/04 02:01:09;;;;;;;2.50;0.93;;;17.70;69.80;;;;;;10368044;28;20213;-69
2022/01/04 02:06:33;;;;;;;0.90;0.70;;;17.70;69.80;;;;;;10327772;28;20221;-69
2022/01/04 02:11:55;;;;;;;1.50;0.77;;;17.70;69.80;;;;;;10332371;28;20218;-69
2022/01/04 02:17:17;;;;;;;1.53;0.90;;;17.70;69.80;;;;;;10361414;28;20293;-70
2022/01/04 02:22:41;;;;;;;2.27;1.13;;;17.70;69.80;;;;;;10369893;28;20218;-69
2022/01/04 02:28:03;;;;;;;1.10;0.90;;;17.70;69.80;;;;;;10368993;28;20194;-69
2022/01/04 02:33:25;;;;;;;1.30;0.80;;;17.70;69.80;;;;;;10369423;28;20226;-69
2022/01/04 02:38:51;;;;;;;1.07;0.70;;;17.70;69.80;;;;;;10368739;28;20195;-69
2022/01/04 02:44:13;;;;;;;1.27;0.80;;;17.70;69.80;;;;;;10369400;28;20214;-69
2022/01/04 02:49:35;;;;;;;1.33;0.70;;;17.60;69.70;;;;;;10369282;28;20198;-69
2022/01/04 02:54:59;;;;;;;1.30;0.83;;;17.70;69.80;;;;;;10368455;28;20225;-70
2022/01/04 03:00:23;;;;;;;1.67;0.70;;;17.70;69.70;;;;;;10361025;28;20574;-67
2022/01/04 03:05:45;;;;;;;1.13;0.83;;;17.70;69.70;;;;;;10327895;28;20223;-68
2022/01/04 03:11:09;;;;;;;0.93;0.73;;;17.70;69.70;;;;;;10334387;28;20204;-68
2022/01/04 03:16:31;;;;;;;1.33;0.73;;;17.70;69.70;;;;;;10296537;28;20310;-69
2022/01/04 03:21:53;;;;;;;2.77;1.00;;;17.70;69.70;;;;;;10343543;28;20206;-68
2022/01/04 03:27:17;;;;;;;0.90;0.70;;;17.70;69.70;;;;;;10375312;28;20198;-68
2022/01/04 03:32:39;;;;;;;0.70;0.70;;;17.60;69.60;;;;;;10366927;28;20218;-68
2022/01/04 03:38:01;;;;;;;0.80;0.70;;;17.70;69.70;;;;;;10334095;28;20215;-68
2022/01/04 03:43:24;;;;;;;1.03;0.80;;;17.70;69.70;;;;;;10336093;28;20223;-68
2022/01/04 03:48:47;;;;;;;1.47;0.73;;;17.70;69.70;;;;;;10328184;28;20242;-68
2022/01/04 03:54:10;;;;;;;1.47;0.70;;;17.60;69.60;;;;;;10334438;28;20230;-68
2022/01/04 03:59:33;;;;;;;0.83;0.50;;;17.60;69.60;;;;;;10333147;28;20191;-68
2022/01/04 04:04:56;;;;;;;1.50;0.60;;;17.60;69.60;;;;;;10339792;28;20586;-69
2022/01/04 04:10:18;;;;;;;1.10;0.80;;;17.60;69.60;;;;;;10333656;28;20322;-69
2022/01/04 04:15:43;;;;;;;1.77;0.90;;;17.60;69.60;;;;;;10333235;28;20698;-68
2022/01/04 04:21:05;;;;;;;1.93;0.90;;;17.60;69.60;;;;;;10332518;28;20662;-68
2022/01/04 04:26:27;;;;;;;1.10;0.70;;;17.60;69.60;;;;;;10343063;28;20716;-68
2022/01/04 04:31:51;;;;;;;1.70;0.80;;;17.60;69.60;;;;;;10292518;28;20592;-69
2022/01/04 04:37:13;;;;;;;1.27;0.80;;;17.60;69.60;;;;;;10425954;23;20225;-68
2022/01/04 04:42:35;;;;;;;1.80;0.90;;;17.60;69.60;;;;;;10452099;28;20683;-68
2022/01/04 04:47:59;;;;;;;1.33;0.80;;;17.70;69.50;;;;;;10413475;28;20653;-68
2022/01/04 04:53:21;;;;;;;2.50;0.87;;;17.70;69.40;;;;;;10413294;28;20214;-68
2022/01/04 04:58:43;;;;;;;1.30;0.60;;;17.70;69.40;;;;;;10406792;28;20225;-68
2022/01/04 05:04:06;;;;;;;0.83;0.70;;;17.70;69.30;;;;;;10411766;28;20232;-68
2022/01/04 05:09:29;;;;;;;1.00;0.80;;;17.70;69.30;;;;;;10413563;28;20209;-68
2022/01/04 05:14:51;;;;;;;0.90;0.80;;;17.70;69.40;;;;;;10412550;28;20628;-68
2022/01/04 05:20:15;;;;;;;2.03;0.80;;;17.70;69.40;;;;;;10371478;28;20856;-68
2022/01/04 05:25:37;;;;;;;1.77;0.70;;;17.70;69.40;;;;;;10371608;28;20211;-68
2022/01/04 05:31:00;;;;;;;1.50;1.00;;;17.70;69.30;;;;;;10380927;28;20196;-68
2022/01/04 05:36:23;;;;;;;1.37;0.77;;;17.70;69.20;;;;;;10432264;28;20224;-68
2022/01/04 05:41:45;;;;;;;0.93;0.80;;;17.80;69.30;;;;;;10409622;28;20669;-68
2022/01/04 05:47:08;;;;;;;0.67;0.47;;;17.80;69.20;;;;;;10410750;28;20343;-68
2022/01/04 05:52:32;;;;;;;1.07;0.83;;;17.80;69.20;;;;;;10411429;28;20198;-68
2022/01/04 05:57:54;;;;;;;1.33;0.50;;;17.80;69.30;;;;;;10410088;28;20228;-68
2022/01/04 06:03:16;;;;;;;1.50;0.70;;;17.80;69.30;;;;;;10409399;28;20217;-68
2022/01/04 06:08:39;;;;;;;1.30;0.70;;;17.80;69.30;;;;;;10413718;28;20628;-68
2022/01/04 06:19:41;;;;;;;0.60;0.50;;;17.80;69.30;;;;;;10409927;28;20236;-68
2022/01/04 06:25:07;;;;;;;1.30;0.80;;;17.80;69.30;;;;;;10409561;28;20217;-68
2022/01/04 06:30:29;;;;;;;1.23;0.70;;;17.80;69.30;;;;;;10408542;28;20205;-68
2022/01/04 06:35:52;;;;;;;0.40;0.40;;;17.80;69.30;;;;;;10408314;28;20233;-68
2022/01/04 06:41:15;;;;;;;0.90;0.77;;;17.80;69.30;;;;;;10408033;28;20194;-68
2022/01/04 06:46:38;;;;;;;0.83;0.60;;;17.70;69.20;;;;;;10415364;28;20224;-68
2022/01/04 06:52:00;;;;;;;1.70;1.03;;;17.80;69.30;;;;;;10414971;28;20577;-68
2022/01/04 06:57:23;;;;;;;1.23;0.70;;;17.80;69.30;;;;;;10414305;28;20717;-68
2022/01/04 07:02:45;;;;;;;0.93;0.60;;;17.80;69.30;;;;;;10389276;28;20198;-68
2022/01/04 07:08:08;;;;;;;1.60;0.80;;;17.80;69.30;;;;;;10387448;28;20201;-68
2022/01/04 07:13:31;;;;;;;0.87;0.77;;;17.80;69.30;;;;;;10406575;28;20213;-68
2022/01/04 07:18:54;;;;;;;0.70;0.70;;;17.80;69.20;;;;;;10395890;28;20273;-68
2022/01/04 07:24:16;;;;;;;1.20;0.80;;;17.70;69.00;;;;;;10395265;28;20304;-68
2022/01/04 07:29:40;;;;;;;1.27;0.80;;;17.70;69.10;;;;;;10409375;28;20228;-68
2022/01/04 07:35:02;;;;;;;1.80;0.80;;;17.70;69.20;;;;;;10378223;28;1059224;-68
2022/01/04 07:40:24;;;;;;;0.93;0.73;;;17.70;69.20;;;;;;10416526;28;20782;-68
2022/01/04 07:45:47;;;;;;;1.30;0.70;;;17.70;69.30;;;;;;10416416;28;20639;-68
2022/01/04 07:51:11;;;;;;;1.47;0.70;;;17.70;69.30;;;;;;10416086;28;20696;-68
2022/01/04 07:56:33;;;;;;;1.33;0.90;;;17.70;69.30;;;;;;10414952;28;20750;-68
2022/01/04 08:01:57;;;;;;;0.90;0.73;;;17.70;69.40;;;;;;10415647;28;20197;-68
2022/01/04 08:07:19;;;;;;;1.03;0.70;;;17.70;69.40;;;;;;10413916;28;20206;-67
2022/01/04 08:12:41;;;;;;;1.23;0.70;;;17.70;69.70;;;;;;10413462;28;20273;-68
2022/01/04 08:18:05;;;;;;;1.00;0.73;;;17.80;69.70;;;;;;10414160;28;20234;-69
2022/01/04 08:23:27;;;;;;;0.80;0.50;;;17.80;69.70;;;;;;10407249;28;20305;-67
2022/01/04 08:28:49;;;;;;;2.53;0.70;;;17.80;69.70;;;;;;10411963;28;20245;-67
2022/01/04 08:34:13;;;;;;;1.83;0.70;;;17.80;69.70;;;;;;10412387;28;20229;-68
2022/01/04 08:39:35;;;;;;;3.15;0.70;;;17.80;69.70;;;;;;10410349;28;20442;-67
2022/01/04 08:44:57;;;;;;;2.30;0.70;;;18.70;66.40;;;;;;10374602;28;20602;-66
2022/01/04 08:50:21;;;;;;;1.73;0.70;;;18.20;68.30;;;;;;10406509;28;20440;-67
2022/01/04 08:55:44;;;;;;;1.00;0.73;;;19.00;65.30;;;;;;10412778;28;20707;-68
2022/01/04 09:01:06;;;;;;;1.23;0.70;;;18.30;67.50;;;;;;10411546;28;20205;-67
2022/01/04 09:06:30;;;;;;;1.37;0.80;;;18.00;68.40;;;;;;10413489;28;20224;-67
2022/01/04 09:11:53;;;;;;;1.13;0.70;;;17.90;68.90;;;;;;10412138;28;20201;-67
2022/01/04 09:22:56;;;;;;;1.07;0.80;;;17.80;69.40;;;;;;10410084;28;20680;-67
2022/01/04 09:28:19;;;;;;;1.37;0.80;;;17.70;69.60;;;;;;10411415;28;20615;-66
2022/01/04 09:33:41;;;;;;;1.10;0.80;;;17.70;69.60;;;;;;10406159;28;20229;-67
2022/01/04 09:39:08;;;;;;;1.23;0.90;;;17.70;69.60;;;;;;10404447;28;20221;-67
2022/01/04 09:44:31;;;;;;;1.30;0.80;;;17.70;69.60;;;;;;10407332;28;20217;-67
2022/01/04 09:49:53;;;;;;;1.17;0.60;;;17.70;70.20;;;;;;10406295;28;20201;-66
2022/01/04 09:55:17;;;;;;;1.33;0.90;;;17.70;70.00;;;;;;10406778;28;20229;-66
2022/01/04 10:00:39;;;;;;;0.93;0.73;;;17.70;69.80;;;;;;10405547;28;20570;-65
2022/01/04 10:06:03;;;;;;;1.07;0.80;;;17.70;69.80;;;;;;10408224;28;20206;-65
2022/01/04 10:11:33;;;;;;;0.73;0.60;;;17.70;69.90;;;;;;10409681;28;20285;-64
2022/01/04 10:16:56;;;;;;;1.15;0.80;;;17.70;69.90;;;;;;10397530;28;20450;-65
2022/01/04 10:22:23;;;;;;;13.57;10.53;;;18.30;67.90;;;;;;10408423;28;20836;-68
2022/01/04 10:27:48;;;;;;;11.63;9.40;;;18.80;59.70;;;;;;10410155;28;20198;-67
2022/01/04 10:38:16;;;;;;;16.10;9.67;;;17.40;60.40;;;;;;10400781;28;20234;-66
2022/01/04 10:43:43;;;;;;;11.13;8.57;;;17.20;60.50;;;;;;10385637;28;20205;-65
2022/01/04 10:49:15;;;;;;;10.43;7.43;;;17.00;60.40;;;;;;10407827;28;20335;-64
2022/01/04 10:54:37;;;;;;;9.17;7.37;;;16.80;60.10;;;;;;10401690;28;20280;-66
2022/01/04 11:00:38;;;;;;;9.50;6.50;;;16.70;60.20;;;;;;10404648;28;20250;-65
2022/01/04 11:06:07;;;;;;;7.43;4.20;;;16.70;60.40;;;;;;10404659;28;20214;-67
2022/01/04 11:11:29;;;;;;;5.77;3.63;;;16.90;63.40;;;;;;10407559;28;20241;-64
2022/01/04 11:16:53;;;;;;;5.70;2.83;;;17.10;64.60;;;;;;10399055;28;20218;-66
2022/01/04 11:22:16;;;;;;;3.80;2.57;;;17.30;65.00;;;;;;10407234;28;20233;-65
2022/01/04 11:27:39;;;;;;;3.13;2.13;;;17.40;65.30;;;;;;10407215;28;20209;-66
2022/01/04 11:33:10;;;;;;;4.30;2.07;;;17.40;65.40;;;;;;10414304;28;20202;-67
2022/01/04 11:38:34;;;;;;;4.10;2.10;;;17.50;65.70;;;;;;10414141;28;20230;-66
2022/01/04 11:43:56;;;;;;;2.70;1.60;;;17.50;65.90;;;;;;10415930;28;20189;-66
2022/01/04 11:49:20;;;;;;;2.10;1.40;;;17.60;66.20;;;;;;10413771;28;20217;-66
2022/01/04 11:54:42;;;;;;;3.47;1.60;;;17.50;66.30;;;;;;10407130;28;20541;-66
2022/01/04 12:00:05;;;;;;;2.67;1.83;;;17.60;66.60;;;;;;10412961;28;20237;-65
2022/01/04 12:05:29;;;;;;;1.70;1.20;;;17.60;66.70;;;;;;10413089;28;20201;-65
2022/01/04 12:10:53;;;;;;;1.77;1.20;;;17.60;66.90;;;;;;10370593;28;20214;-65
2022/01/04 12:16:15;;;;;;;2.67;1.40;;;17.70;67.00;;;;;;10411308;28;20679;-66
2022/01/04 12:21:46;;;;;;;3.77;1.47;;;17.70;67.20;;;;;;10411394;28;20229;-65
2022/01/04 12:27:11;;;;;;;1.77;1.33;;;17.70;67.30;;;;;;10403367;28;20201;-65
2022/01/04 12:32:35;;;;;;;1.83;1.43;;;17.60;67.40;;;;;;10406985;28;20637;-67
2022/01/04 12:38:07;;;;;;;2.10;1.10;;;17.70;67.50;;;;;;10406291;28;20572;-66
2022/01/04 12:43:29;;;;;;;1.83;1.27;;;17.70;67.30;;;;;;10393339;28;20943;-67
2022/01/04 12:48:55;;;;;;;2.30;1.33;;;17.70;67.50;;;;;;10376854;28;20214;-66
2022/01/04 12:54:20;;;;;;;2.63;1.10;;;17.70;67.50;;;;;;10383584;28;20208;-66
2022/01/04 12:59:44;;;;;;;2.90;1.20;;;17.70;67.50;;;;;;10399204;28;20210;-66
2022/01/04 13:05:09;;;;;;;3.07;1.10;;;17.70;67.50;;;;;;10408754;28;20536;-66
2022/01/04 13:10:32;;;;;;;2.03;1.27;;;17.80;67.60;;;;;;10409843;28;20221;-66
2022/01/04 13:15:55;;;;;;;3.20;1.10;;;17.70;67.60;;;;;;10406391;28;20579;-67
2022/01/04 13:21:17;;;;;;;2.23;1.20;;;17.80;67.70;;;;;;10410868;28;20221;-65
2022/01/04 13:26:40;;;;;;;2.27;1.30;;;17.80;67.60;;;;;;10410331;28;20219;-65
2022/01/04 13:32:06;;;;;;;1.70;1.20;;;17.70;67.60;;;;;;10410827;28;20244;-67
2022/01/04 13:37:28;;;;;;;1.37;0.90;;;17.80;67.60;;;;;;10409201;28;20364;-66
2022/01/04 13:43:00;;;;;;;1.83;1.10;;;17.70;67.60;;;;;;10410322;28;20202;-67
2022/01/04 13:48:24;;;;;;;2.57;1.50;;;17.80;67.60;;;;;;10409445;28;20576;-67
2022/01/04 13:53:48;;;;;;;3.00;1.30;;;17.80;67.70;;;;;;10406216;28;20201;-65
2022/01/04 13:59:20;;;;;;;1.53;1.00;;;17.80;67.70;;;;;;10408727;28;20225;-66
2022/01/04 14:04:42;;;;;;;1.90;1.20;;;17.80;67.60;;;;;;10388965;28;20209;-67
2022/01/04 14:10:05;;;;;;;1.93;1.30;;;17.80;67.70;;;;;;10408911;28;20224;-66
2022/01/04 14:15:28;;;;;;;1.40;1.10;;;17.80;67.70;;;;;;10408506;28;20201;-66
2022/01/04 14:20:55;;;;;;;1.97;1.10;;;17.80;67.70;;;;;;10409087;28;20214;-68
2022/01/04 14:26:23;;;;;;;2.10;1.30;;;17.80;68.30;;;;;;10409250;28;20210;-65
2022/01/04 14:31:46;;;;;;;2.23;1.37;;;17.80;67.60;;;;;;10408484;28;20214;-67
2022/01/04 14:37:09;;;;;;;1.90;1.20;;;17.80;67.70;;;;;;10409256;28;20687;-66
2022/01/04 14:42:31;;;;;;;1.67;1.20;;;17.80;67.80;;;;;;10410974;28;20213;-65
2022/01/04 14:47:55;;;;;;;1.53;1.10;;;17.80;67.80;;;;;;10409225;28;20689;-66
2022/01/04 14:53:18;;;;;;;1.17;1.00;;;17.80;68.40;;;;;;10408625;28;20204;-66
2022/01/04 14:58:40;;;;;;;1.93;1.13;;;17.80;67.80;;;;;;10404867;28;20320;-66
2022/01/04 15:04:03;;;;;;;2.63;1.23;;;17.80;67.80;;;;;;10411298;28;20200;-65
2022/01/04 15:09:25;;;;;;;1.47;1.03;;;17.80;67.80;;;;;;10414134;28;20209;-68
2022/01/04 15:14:48;;;;;;;2.00;1.10;;;17.80;67.80;;;;;;10414196;28;20205;-67
2022/01/04 15:20:12;;;;;;;1.33;0.90;;;17.80;67.80;;;;;;10414547;28;20821;-66
2022/01/04 15:25:34;;;;;;;1.50;1.03;;;17.80;67.80;;;;;;10415728;28;20205;-65
2022/01/04 15:30:56;;;;;;;1.63;0.90;;;17.80;67.80;;;;;;10413152;28;20210;-66
2022/01/04 15:36:20;;;;;;;1.80;0.90;;;17.80;67.70;;;;;;10413034;28;20198;-66
2022/01/04 15:41:42;;;;;;;2.10;1.23;;;17.80;67.70;;;;;;10414915;28;20218;-65
2022/01/04 15:47:06;;;;;;;1.20;0.90;;;17.80;67.70;;;;;;10413597;28;20671;-66
2022/01/04 15:52:30;;;;;;;1.67;0.90;;;17.80;67.70;;;;;;10415038;28;20214;-66
2022/01/04 15:57:52;;;;;;;1.43;0.70;;;17.80;67.70;;;;;;10412545;28;20276;-65
2022/01/04 16:03:15;;;;;;;1.37;1.00;;;17.80;67.70;;;;;;10421016;28;20205;-66
2022/01/04 16:08:38;;;;;;;1.23;0.83;;;17.80;67.60;;;;;;10414010;28;20214;-66
2022/01/04 16:14:01;;;;;;;1.30;0.90;;;17.80;67.60;;;;;;10416764;28;20209;-66
2022/01/04 16:25:12;;;;;;;0.80;0.77;;;17.80;67.60;;;;;;10385792;28;20201;-66
2022/01/04 16:30:35;;;;;;;1.33;0.80;;;17.90;67.70;;;;;;10413323;28;20213;-67
2022/01/04 16:35:58;;;;;;;2.13;0.90;;;17.90;67.70;;;;;;10444715;23;20225;-64
2022/01/04 16:41:22;;;;;;;1.40;0.80;;;17.90;67.70;;;;;;10454919;28;20228;-64
2022/01/04 16:46:46;;;;;;;1.03;0.80;;;17.90;67.60;;;;;;10473696;28;20224;-63
2022/01/04 16:52:08;;;;;;;1.20;1.00;;;17.90;67.60;;;;;;10495346;28;20200;-64
2022/01/04 16:57:32;;;;;;;2.03;1.10;;;17.80;67.50;;;;;;10494788;28;20595;-63
2022/01/04 17:02:54;;;;;;;1.67;0.87;;;17.90;67.60;;;;;;10495891;28;20733;-63
2022/01/04 17:08:16;;;;;;;1.63;0.90;;;17.80;67.50;;;;;;10494670;28;20691;-64
2022/01/04 17:19:19;;;;;;;1.23;1.00;;;17.80;67.50;;;;;;10482987;28;20224;-63
2022/01/04 17:24:41;;;;;;;2.43;1.20;;;17.90;67.60;;;;;;10492862;28;20208;-63
2022/01/04 17:30:08;;;;;;;1.63;1.00;;;17.90;68.20;;;;;;10493448;28;20199;-63
2022/01/04 17:35:31;;;;;;;1.40;1.10;;;17.90;67.60;;;;;;10492183;28;20228;-63
2022/01/04 17:40:53;;;;;;;1.40;1.00;;;17.90;67.50;;;;;;10494169;28;20223;-63
2022/01/04 17:46:17;;;;;;;4.27;1.53;;;17.90;67.40;;;;;;10490352;28;20216;-63
2022/01/04 17:51:40;;;;;;;4.30;2.13;;;17.90;67.40;;;;;;10484992;28;20410;-65
2022/01/04 17:57:02;;;;;;;1.57;1.30;;;18.80;64.50;;;;;;10486516;28;20224;-64
2022/01/04 18:02:25;;;;;;;2.67;1.53;;;18.30;65.90;;;;;;10483095;28;20207;-64
2022/01/04 18:07:48;;;;;;;2.47;1.33;;;18.10;66.70;;;;;;10475925;28;20223;-65
2022/01/04 18:13:10;;;;;;;2.73;1.40;;;18.00;67.20;;;;;;10492680;28;20202;-63
2022/01/04 18:18:33;;;;;;;2.10;1.40;;;17.90;67.40;;;;;;10477992;28;20232;-64
2022/01/04 18:23:55;;;;;;;3.03;1.30;;;17.90;67.60;;;;;;10485749;28;20216;-63
2022/01/04 18:29:18;;;;;;;2.03;1.50;;;17.90;67.60;;;;;;10488704;28;20200;-64
2022/01/04 18:34:41;;;;;;;5.20;1.57;;;17.90;67.70;;;;;;10486280;28;20231;-63
2022/01/04 18:40:05;;;;;;;2.83;1.67;;;17.90;67.80;;;;;;10493447;28;20223;-64
2022/01/04 18:45:27;;;;;;;2.17;1.37;;;17.90;67.80;;;;;;10495691;28;20213;-63
2022/01/04 18:50:51;;;;;;;3.07;1.60;;;17.80;67.80;;;;;;10494240;28;20618;-64
2022/01/04 18:56:13;;;;;;;2.60;1.40;;;17.90;67.80;;;;;;10494167;28;20216;-63
2022/01/04 19:01:36;;;;;;;2.77;1.47;;;17.90;67.90;;;;;;10493812;28;20227;-64
2022/01/04 19:06:59;;;;;;;3.23;1.60;;;17.90;67.80;;;;;;10491523;28;20220;-66
2022/01/04 19:12:21;;;;;;;1.97;1.33;;;17.90;67.80;;;;;;10493351;28;20230;-65
2022/01/04 19:17:44;;;;;;;3.27;1.77;;;17.90;67.90;;;;;;10493678;28;20626;-66
2022/01/04 19:23:08;;;;;;;3.73;1.73;;;17.90;68.00;;;;;;10493284;28;20606;-66
2022/01/04 19:28:30;;;;;;;2.97;1.53;;;17.90;68.10;;;;;;10492626;28;20329;-66
2022/01/04 19:39:34;;;;;;;2.63;1.43;;;17.80;68.10;;;;;;10470604;28;20277;-65
2022/01/04 19:44:56;;;;;;;2.73;1.30;;;17.90;68.20;;;;;;10491906;28;20212;-66
2022/01/04 19:50:22;;;;;;;1.63;1.23;;;17.80;68.20;;;;;;10485628;28;20196;-65
2022/01/04 19:55:45;;;;;;;1.70;1.23;;;17.80;68.20;;;;;;10477770;28;20348;-65
2022/01/04 20:01:07;;;;;;;2.83;1.40;;;17.80;68.20;;;;;;10451015;28;20587;-65
2022/01/04 20:06:32;;;;;;;3.13;1.50;;;17.80;68.20;;;;;;10465670;28;20212;-65
2022/01/04 20:11:56;;;;;;;3.23;1.57;;;17.80;68.20;;;;;;10491154;28;20191;-65
2022/01/04 20:17:18;;;;;;;1.97;1.17;;;17.90;68.10;;;;;;10479361;28;20216;-65
2022/01/04 20:22:40;;;;;;;2.80;1.43;;;17.90;68.10;;;;;;10483975;28;20203;-65
2022/01/04 20:28:05;;;;;;;2.33;1.30;;;17.90;68.00;;;;;;10476953;28;20216;-66
2022/01/04 20:33:27;;;;;;;3.03;1.33;;;17.90;67.90;;;;;;10471710;28;20197;-66
2022/01/04 20:38:50;;;;;;;2.67;1.53;;;17.90;67.90;;;;;;10450784;28;20213;-64
2022/01/04 20:44:14;;;;;;;1.73;1.20;;;17.90;67.80;;;;;;10494100;28;20619;-65
2022/01/04 20:49:37;;;;;;;2.67;1.33;;;17.90;67.80;;;;;;10494960;28;20200;-64
2022/01/04 20:54:59;;;;;;;1.90;1.20;;;17.90;67.70;;;;;;10500338;28;20220;-65
2022/01/04 21:00:23;;;;;;;2.53;1.53;;;17.90;67.70;;;;;;10476047;28;20216;-66
2022/01/04 21:05:45;;;;;;;4.57;1.47;;;17.90;67.70;;;;;;10493982;28;20695;-65
2022/01/04 21:11:07;;;;;;;2.50;1.20;;;17.90;67.70;;;;;;10493637;28;20193;-66
2022/01/04 21:16:31;;;;;;;2.67;1.30;;;17.90;67.70;;;;;;10486020;28;20217;-66
2022/01/04 21:21:53;;;;;;;2.00;1.00;;;17.90;67.60;;;;;;10494439;28;20226;-65
2022/01/04 21:27:15;;;;;;;2.37;1.40;;;17.90;67.60;;;;;;10492979;28;20220;-65
2022/01/04 21:32:39;;;;;;;3.13;1.40;;;17.90;67.60;;;;;;10493472;28;20195;-65
2022/01/04 21:38:01;;;;;;;2.23;1.03;;;17.90;67.60;;;;;;10491448;28;20217;-65
2022/01/04 21:43:23;;;;;;;2.37;1.20;;;17.90;67.60;;;;;;10494029;28;20283;-66
2022/01/04 21:48:47;;;;;;;1.60;1.00;;;17.90;67.60;;;;;;10489044;28;20203;-67
2022/01/04 21:54:09;;;;;;;1.70;1.13;;;17.90;67.60;;;;;;10508837;28;20703;-66
2022/01/04 21:59:32;;;;;;;1.73;1.10;;;17.90;67.60;;;;;;10500952;28;20211;-66
2022/01/04 22:04:55;;;;;;;1.80;1.03;;;17.80;67.60;;;;;;10496892;28;20213;-65
2022/01/04 22:10:18;;;;;;;1.77;1.10;;;17.80;67.60;;;;;;10490736;28;20256;-65
2022/01/04 22:15:40;;;;;;;1.93;1.03;;;17.80;67.60;;;;;;10489633;28;20679;-65
2022/01/04 22:21:03;;;;;;;1.53;1.00;;;17.80;67.60;;;;;;10489006;28;20216;-66
2022/01/04 22:26:25;;;;;;;3.77;1.30;;;17.80;67.50;;;;;;10492353;28;20216;-65
2022/01/04 22:31:48;;;;;;;1.80;1.00;;;17.80;67.50;;;;;;10490511;28;20238;-66
2022/01/04 22:37:12;;;;;;;2.30;1.10;;;17.80;67.50;;;;;;10489107;28;20220;-65
2022/01/04 22:42:34;;;;;;;1.97;1.00;;;17.80;67.50;;;;;;10448944;22;20229;-72
2022/01/04 22:47:56;;;;;;;1.83;0.93;;;17.80;67.50;;;;;;10406521;28;20212;-73
2022/01/04 22:53:20;;;;;;;1.97;1.07;;;17.80;67.50;;;;;;10406677;28;20224;-72
2022/01/04 22:58:42;;;;;;;2.47;1.00;;;17.80;67.50;;;;;;10398758;28;20863;-72
2022/01/04 23:04:04;;;;;;;2.87;1.20;;;17.80;67.40;;;;;;10392764;28;20241;-71
2022/01/04 23:09:28;;;;;;;1.43;0.80;;;17.80;67.40;;;;;;10389762;28;20194;-72
2022/01/04 23:14:50;;;;;;;1.03;0.90;;;17.80;67.40;;;;;;10392905;28;20209;-72
2022/01/04 23:20:13;;;;;;;1.47;0.93;;;17.80;67.40;;;;;;10394524;28;20590;-72
2022/01/04 23:25:37;;;;;;;1.00;0.80;;;17.80;67.40;;;;;;10419411;28;21406;-72
2022/01/04 23:30:59;;;;;;;2.20;0.93;;;17.80;67.30;;;;;;10408364;28;20224;-71
2022/01/04 23:36:21;;;;;;;1.33;0.90;;;17.80;67.20;;;;;;10415527;28;20285;-71
2022/01/04 23:41:45;;;;;;;1.37;0.80;;;17.80;67.30;;;;;;10430338;28;20225;-72
2022/01/04 23:47:08;;;;;;;3.07;1.30;;;17.80;67.30;;;;;;10389912;28;20197;-72
2022/01/04 23:52:30;;;;;;;1.83;0.80;;;17.80;67.30;;;;;;10415577;28;20218;-73
2022/01/04 23:57:54;;;;;;;1.50;0.83;;;17.80;67.20;;;;;;10414914;28;20198;-72
